Time;durP1;ratioP1;P1;durP2;ratioP2;P2;SDS_P1;SDS_P2;PMS_P1;PMS_P2;Temp;Humidity;BMP_temperature;BMP_pressure;BME280_temperature;BME280_humidity;BME280_pressure;Samples;Min_cycle;Max_cycle;Signal;HPM_P1;HPM_P2
2022/12/01 00:01:01;;;;;;;8.13;7.00;;;21.10;90.50;;;;;;4994379;28;20641;-78
2022/12/01 00:03:30;;;;;;;9.63;8.32;;;21.10;90.70;;;;;;4994799;28;20483;-78
2022/12/01 00:06:00;;;;;;;7.70;6.90;;;21.10;90.90;;;;;;5004491;28;20204;-77
2022/12/01 00:08:27;;;;;;;8.27;7.37;;;21.10;91.10;;;;;;5005524;28;20208;-77
2022/12/01 00:10:54;;;;;;;9.25;7.30;;;21.00;91.20;;;;;;5000709;28;20435;-81
2022/12/01 00:13:22;;;;;;;8.63;7.35;;;21.00;91.30;;;;;;4993492;28;20275;-81
2022/12/01 00:15:49;;;;;;;7.32;6.57;;;21.00;91.40;;;;;;4992310;28;20235;-81
2022/12/01 00:18:17;;;;;;;7.93;7.05;;;20.90;91.40;;;;;;4989951;28;20291;-82
2022/12/01 00:20:43;;;;;;;14.43;8.10;;;20.90;91.40;;;;;;4997182;28;20253;-81
2022/12/01 00:23:10;;;;;;;7.45;6.55;;;20.90;91.40;;;;;;4993322;28;20205;-82
2022/12/01 00:25:37;;;;;;;9.68;8.23;;;21.00;91.30;;;;;;4988232;28;20197;-82
2022/12/01 00:28:04;;;;;;;8.68;7.13;;;21.00;91.20;;;;;;4998565;28;20668;-82
2022/12/01 00:30:32;;;;;;;8.85;6.97;;;21.00;91.10;;;;;;4986242;28;20596;-81
2022/12/01 00:32:59;;;;;;;8.50;7.60;;;21.00;91.10;;;;;;4989452;28;20201;-82
2022/12/01 00:35:25;;;;;;;8.45;6.95;;;21.00;91.00;;;;;;4986663;28;20201;-82
2022/12/01 00:37:52;;;;;;;7.15;6.40;;;21.00;91.00;;;;;;4984506;28;20204;-81
2022/12/01 00:40:19;;;;;;;13.30;6.72;;;20.90;90.90;;;;;;4995785;28;20652;-82
2022/12/01 00:42:46;;;;;;;9.15;6.95;;;20.90;90.90;;;;;;4994179;28;20617;-82
2022/12/01 00:45:15;;;;;;;8.60;7.38;;;20.90;90.90;;;;;;4985087;28;20196;-82
2022/12/01 00:47:43;;;;;;;8.20;7.40;;;20.80;90.90;;;;;;4992598;28;20362;-82
2022/12/01 00:50:10;;;;;;;9.40;7.32;;;20.90;90.90;;;;;;4986788;28;20426;-82
2022/12/01 00:52:37;;;;;;;9.55;7.30;;;20.90;90.80;;;;;;4991909;28;20748;-81
2022/12/01 00:55:04;;;;;;;10.85;8.18;;;20.90;90.80;;;;;;4994673;28;20208;-82
2022/12/01 00:57:31;;;;;;;7.85;6.82;;;20.90;90.70;;;;;;4994711;28;20226;-82
2022/12/01 00:59:58;;;;;;;8.50;7.28;;;20.90;90.70;;;;;;4995111;28;20581;-82
2022/12/01 01:02:24;;;;;;;8.55;7.75;;;20.90;90.60;;;;;;4992966;28;20311;-82
2022/12/01 01:04:52;;;;;;;7.57;6.32;;;20.90;90.50;;;;;;4993266;28;20200;-82
2022/12/01 01:07:20;;;;;;;8.73;6.95;;;20.90;90.60;;;;;;4994068;28;20696;-82
2022/12/01 01:09:47;;;;;;;7.55;6.53;;;20.80;90.50;;;;;;4991620;28;20220;-82
2022/12/01 01:12:13;;;;;;;8.77;6.88;;;20.80;90.60;;;;;;4989420;28;20205;-82
2022/12/01 01:14:40;;;;;;;9.00;8.10;;;20.80;90.60;;;;;;4996034;28;20453;-82
2022/12/01 01:17:07;;;;;;;9.63;8.25;;;20.80;90.60;;;;;;4994719;28;20488;-82
2022/12/01 01:19:33;;;;;;;11.68;8.10;;;20.80;90.50;;;;;;4996135;28;20197;-82
2022/12/01 01:22:02;;;;;;;8.40;7.57;;;20.90;90.40;;;;;;4991883;28;20316;-82
2022/12/01 01:24:28;;;;;;;7.15;6.45;;;20.90;90.30;;;;;;4982316;28;20461;-82
2022/12/01 01:26:55;;;;;;;7.97;6.40;;;20.90;90.40;;;;;;5003338;28;20188;-82
2022/12/01 01:29:22;;;;;;;6.97;6.07;;;20.90;90.40;;;;;;4996354;28;20197;-82
2022/12/01 01:31:48;;;;;;;8.25;7.45;;;20.80;90.30;;;;;;4992294;28;20208;-82
2022/12/01 01:34:15;;;;;;;7.25;6.55;;;20.80;90.30;;;;;;4990549;28;20201;-82
2022/12/01 01:36:42;;;;;;;8.80;6.82;;;20.80;90.30;;;;;;4995413;28;20208;-82
2022/12/01 01:39:10;;;;;;;9.82;7.60;;;20.80;90.20;;;;;;4987885;28;20561;-82
2022/12/01 01:41:37;;;;;;;7.75;6.78;;;20.80;90.30;;;;;;4997473;28;20675;-82
2022/12/01 01:44:04;;;;;;;10.40;7.55;;;20.80;90.30;;;;;;4994714;28;20204;-81
2022/12/01 01:46:32;;;;;;;7.55;6.75;;;20.80;90.20;;;;;;4994939;28;20197;-82
2022/12/01 01:49:01;;;;;;;7.85;6.80;;;20.80;90.10;;;;;;4987749;28;20201;-82
2022/12/01 01:51:33;;;;;;;9.23;7.30;;;20.90;90.10;;;;;;4995017;28;20204;-82
2022/12/01 01:54:04;;;;;;;7.07;6.40;;;20.80;90.00;;;;;;4995125;28;20195;-81
2022/12/01 01:56:33;;;;;;;7.00;6.30;;;20.80;90.10;;;;;;4992754;28;20205;-82
2022/12/01 01:59:00;;;;;;;7.90;7.10;;;20.80;90.00;;;;;;4991166;28;20212;-81
2022/12/01 02:01:26;;;;;;;7.57;6.82;;;20.80;90.00;;;;;;4989291;28;20525;-81
2022/12/01 02:03:54;;;;;;;8.25;7.35;;;20.80;90.00;;;;;;4992138;28;20212;-81
2022/12/01 02:06:23;;;;;;;7.85;7.10;;;20.70;90.00;;;;;;4996414;28;20192;-82
2022/12/01 02:08:50;;;;;;;7.38;6.55;;;20.70;90.20;;;;;;4989847;28;20659;-81
2022/12/01 02:11:50;;;;;;;7.38;6.60;;;20.70;90.20;;;;;;4997326;28;20204;-81
2022/12/01 02:14:33;;;;;;;9.35;6.63;;;20.70;90.10;;;;;;4992022;28;20630;-82
2022/12/01 02:17:10;;;;;;;7.13;6.45;;;20.80;90.00;;;;;;4992585;28;20251;-81
2022/12/01 02:19:48;;;;;;;9.00;7.07;;;20.80;89.90;;;;;;4991415;28;20201;-81
2022/12/01 02:22:25;;;;;;;7.45;6.70;;;20.80;90.00;;;;;;4995175;28;20225;-81
2022/12/01 02:25:14;;;;;;;7.05;6.40;;;20.80;89.90;;;;;;4997181;28;20200;-82
2022/12/01 02:27:57;;;;;;;7.90;7.20;;;20.80;89.80;;;;;;4998287;28;20205;-81
2022/12/01 02:30:34;;;;;;;7.75;6.95;;;20.70;89.60;;;;;;4999053;28;20222;-81
2022/12/01 02:33:07;;;;;;;8.48;7.43;;;20.70;89.60;;;;;;4997127;28;20200;-81
2022/12/01 02:35:42;;;;;;;7.20;6.45;;;20.70;89.80;;;;;;4987756;28;20209;-81
2022/12/01 02:38:14;;;;;;;7.45;6.10;;;20.70;90.00;;;;;;4997465;28;20212;-81
2022/12/01 02:40:45;;;;;;;7.80;6.45;;;20.70;89.90;;;;;;4992754;28;20660;-81
2022/12/01 02:43:20;;;;;;;6.45;5.85;;;20.70;89.80;;;;;;4996234;28;20242;-81
2022/12/01 02:45:53;;;;;;;7.70;7.00;;;20.70;89.70;;;;;;4999857;28;20192;-82
2022/12/01 02:48:25;;;;;;;6.63;6.00;;;20.70;89.50;;;;;;4993042;28;20193;-81
2022/12/01 02:50:55;;;;;;;6.82;6.05;;;20.70;89.50;;;;;;4993957;28;20437;-81
2022/12/01 02:53:22;;;;;;;8.27;7.40;;;20.70;89.40;;;;;;4990934;28;20203;-82
2022/12/01 02:55:51;;;;;;;8.30;7.43;;;20.70;89.40;;;;;;4994097;28;20201;-81
2022/12/01 02:58:18;;;;;;;7.68;6.90;;;20.70;89.30;;;;;;4994908;28;20197;-81
2022/12/01 03:01:01;;;;;;;10.25;7.57;;;20.70;89.40;;;;;;4991147;28;20542;-81
2022/12/01 03:03:54;;;;;;;11.50;7.20;;;20.70;89.60;;;;;;4988660;28;20267;-81
2022/12/01 03:06:35;;;;;;;6.63;6.03;;;20.60;89.70;;;;;;4988043;28;20200;-80
2022/12/01 03:09:12;;;;;;;7.63;5.60;;;20.60;89.60;;;;;;4993525;28;20901;-81
2022/12/01 03:11:50;;;;;;;7.45;5.95;;;20.70;89.60;;;;;;4997081;28;20201;-81
2022/12/01 03:14:24;;;;;;;8.52;7.35;;;20.70;89.40;;;;;;4995147;28;20200;-81
2022/12/01 03:16:54;;;;;;;6.57;5.95;;;20.70;89.40;;;;;;4993278;28;20227;-82
2022/12/01 03:19:29;;;;;;;7.43;6.57;;;20.70;89.30;;;;;;4986961;28;20628;-82
2022/12/01 03:22:01;;;;;;;8.27;7.35;;;20.70;89.30;;;;;;4987809;28;20228;-81
2022/12/01 03:24:31;;;;;;;8.52;6.95;;;20.70;89.20;;;;;;4997465;28;20204;-82
2022/12/01 03:27:01;;;;;;;6.00;5.43;;;20.70;89.20;;;;;;4998288;28;20648;-82
2022/12/01 03:29:32;;;;;;;7.55;6.78;;;20.70;89.10;;;;;;4998432;28;20196;-82
2022/12/01 03:32:05;;;;;;;6.72;6.13;;;20.60;89.20;;;;;;4997234;28;20212;-83
2022/12/01 03:34:39;;;;;;;6.88;6.18;;;20.60;89.50;;;;;;4992160;28;20216;-82
2022/12/01 03:37:11;;;;;;;6.60;5.90;;;20.60;89.20;;;;;;4996282;28;21092;-83
2022/12/01 03:39:39;;;;;;;5.63;5.13;;;20.60;89.20;;;;;;5005185;28;20223;-83
2022/12/01 03:42:12;;;;;;;6.53;5.82;;;20.70;89.20;;;;;;4991643;28;20252;-82
2022/12/01 03:44:44;;;;;;;6.57;5.97;;;20.70;89.20;;;;;;5002001;28;20212;-82
2022/12/01 03:47:16;;;;;;;7.47;6.68;;;20.70;89.20;;;;;;5004113;28;20211;-82
2022/12/01 03:49:43;;;;;;;6.57;5.97;;;20.70;89.10;;;;;;4990471;28;20209;-82
2022/12/01 03:52:19;;;;;;;7.28;6.28;;;20.70;89.00;;;;;;4989390;28;20201;-82
2022/12/01 03:54:54;;;;;;;6.45;5.85;;;20.60;88.90;;;;;;4991381;28;20553;-81
2022/12/01 03:57:26;;;;;;;7.18;6.07;;;20.60;89.00;;;;;;4995763;28;20202;-81
2022/12/01 03:59:54;;;;;;;6.70;6.10;;;20.60;89.30;;;;;;4987847;28;20200;-82
2022/12/01 04:02:24;;;;;;;6.30;5.70;;;20.60;89.10;;;;;;4992456;28;20221;-81
2022/12/01 04:04:51;;;;;;;6.47;5.85;;;20.60;89.00;;;;;;4997409;28;20200;-81
2022/12/01 04:07:17;;;;;;;6.38;5.78;;;20.70;88.90;;;;;;4993725;28;20185;-80
2022/12/01 04:09:44;;;;;;;6.80;6.10;;;20.60;88.60;;;;;;4991011;28;20577;-82
2022/12/01 04:12:31;;;;;;;7.10;6.40;;;20.70;88.90;;;;;;4990247;28;20194;-81
2022/12/01 04:15:00;;;;;;;8.25;7.45;;;20.60;88.70;;;;;;4984089;28;20208;-81
2022/12/01 04:17:29;;;;;;;6.68;6.07;;;20.60;88.60;;;;;;4992785;28;20212;-80
2022/12/01 04:19:56;;;;;;;7.82;6.22;;;20.60;88.60;;;;;;4980655;28;20692;-81
2022/12/01 04:22:23;;;;;;;7.60;6.13;;;20.60;88.60;;;;;;4998519;28;20562;-80
2022/12/01 04:24:49;;;;;;;6.32;5.70;;;20.60;88.60;;;;;;4989989;28;20639;-80
2022/12/01 04:27:16;;;;;;;7.35;5.90;;;20.70;88.50;;;;;;5000228;28;20210;-80
2022/12/01 04:29:43;;;;;;;7.35;6.03;;;20.80;88.40;;;;;;5000459;28;20205;-81
2022/12/01 04:32:10;;;;;;;6.40;5.57;;;20.80;88.10;;;;;;4989692;28;20209;-81
2022/12/01 04:34:38;;;;;;;6.22;5.63;;;20.90;87.90;;;;;;4990883;28;20235;-80
2022/12/01 04:37:06;;;;;;;7.18;5.43;;;20.90;87.80;;;;;;4992667;28;20224;-81
2022/12/01 04:39:33;;;;;;;7.53;6.82;;;20.90;87.50;;;;;;4993316;28;20196;-81
2022/12/01 04:41:59;;;;;;;7.75;5.60;;;21.00;87.40;;;;;;5005925;28;20237;-79
2022/12/01 04:44:26;;;;;;;7.47;6.40;;;21.00;87.50;;;;;;4995886;28;20204;-80
2022/12/01 04:46:53;;;;;;;5.88;5.28;;;21.00;87.30;;;;;;5002451;28;20205;-80
2022/12/01 04:49:21;;;;;;;6.87;6.10;;;21.10;87.30;;;;;;4991738;28;20213;-80
2022/12/01 04:51:49;;;;;;;5.90;5.37;;;21.10;87.00;;;;;;4984096;28;21028;-79
2022/12/01 04:54:16;;;;;;;5.85;5.00;;;21.10;86.80;;;;;;4988334;28;20951;-80
2022/12/01 04:56:43;;;;;;;6.10;5.40;;;21.20;86.80;;;;;;4990264;28;20491;-79
2022/12/01 04:59:10;;;;;;;5.80;5.30;;;21.20;86.70;;;;;;4997893;28;20464;-80
2022/12/01 05:01:37;;;;;;;5.93;5.32;;;21.20;86.50;;;;;;5004666;28;20985;-80
2022/12/01 05:04:04;;;;;;;6.33;5.47;;;21.20;86.30;;;;;;4990578;28;20515;-79
2022/12/01 05:06:31;;;;;;;5.97;5.37;;;21.20;87.00;;;;;;4993795;28;20822;-79
2022/12/01 05:09:01;;;;;;;5.90;5.40;;;21.20;86.20;;;;;;4997492;28;20459;-79
2022/12/01 05:11:29;;;;;;;6.43;4.90;;;21.20;86.10;;;;;;4994247;28;20452;-79
2022/12/01 05:13:56;;;;;;;7.17;6.07;;;21.20;86.00;;;;;;4991427;28;20535;-79
2022/12/01 05:16:25;;;;;;;6.15;5.60;;;21.20;86.00;;;;;;4998340;28;20479;-78
2022/12/01 05:20:55;;;;;;;5.83;5.33;;;21.30;86.00;;;;;;4994943;28;20193;-78
2022/12/01 05:21:40;;;;;;;4.97;4.57;;;21.20;85.90;;;;;;4996523;28;20523;-79
2022/12/01 05:24:10;;;;;;;5.80;5.30;;;21.30;85.90;;;;;;4987107;28;20506;-79
2022/12/01 05:26:36;;;;;;;5.97;5.37;;;21.20;85.90;;;;;;5003397;28;20463;-78
2022/12/01 05:29:04;;;;;;;5.63;5.10;;;21.30;85.80;;;;;;5005336;28;20458;-78
2022/12/01 05:31:31;;;;;;;7.03;6.33;;;21.30;85.70;;;;;;4989023;28;20939;-78
2022/12/01 05:33:58;;;;;;;5.97;5.37;;;21.30;85.70;;;;;;4989863;28;20536;-78
2022/12/01 05:36:25;;;;;;;5.10;4.70;;;21.20;85.60;;;;;;4983412;28;20820;-79
2022/12/01 05:38:51;;;;;;;6.20;5.60;;;21.30;85.70;;;;;;4989089;28;20946;-79
2022/12/01 05:41:19;;;;;;;5.20;4.70;;;21.20;85.60;;;;;;4989205;28;20540;-79
2022/12/01 05:43:46;;;;;;;5.13;4.63;;;21.20;85.50;;;;;;4985193;28;20994;-79
2022/12/01 05:46:13;;;;;;;5.60;5.10;;;21.30;85.60;;;;;;4993725;28;20464;-79
2022/12/01 05:48:40;;;;;;;5.70;5.20;;;21.20;85.40;;;;;;4983907;28;20460;-79
2022/12/01 05:51:11;;;;;;;5.40;4.90;;;21.20;85.40;;;;;;4999913;28;20462;-79
2022/12/01 05:53:39;;;;;;;5.90;5.30;;;21.20;85.40;;;;;;4990487;28;20926;-79
2022/12/01 05:56:07;;;;;;;5.90;5.30;;;21.20;85.40;;;;;;4994573;28;20451;-79
2022/12/01 05:58:35;;;;;;;6.07;4.90;;;21.20;85.40;;;;;;5000797;28;20502;-79
2022/12/01 06:01:02;;;;;;;6.23;5.63;;;21.20;85.40;;;;;;4998365;28;20494;-78
2022/12/01 06:03:29;;;;;;;5.50;5.00;;;21.30;85.40;;;;;;4996280;28;20634;-78
2022/12/01 06:05:56;;;;;;;5.90;5.37;;;21.20;85.40;;;;;;4995986;28;20471;-79
2022/12/01 06:08:24;;;;;;;5.40;4.90;;;21.20;85.40;;;;;;4999524;28;20452;-78
2022/12/01 06:10:50;;;;;;;5.97;5.40;;;21.30;85.40;;;;;;4999595;28;20851;-79
2022/12/01 06:13:17;;;;;;;5.13;4.73;;;21.30;85.30;;;;;;4986343;28;20451;-78
2022/12/01 06:15:45;;;;;;;5.67;5.13;;;21.30;85.30;;;;;;4998282;28;20484;-81
2022/12/01 06:18:12;;;;;;;4.70;4.30;;;21.30;85.30;;;;;;4991262;28;20466;-79
2022/12/01 06:20:38;;;;;;;6.03;5.43;;;21.30;85.20;;;;;;4990018;28;20459;-78
2022/12/01 06:23:05;;;;;;;5.90;5.30;;;21.30;85.30;;;;;;4992091;28;20851;-78
2022/12/01 06:25:32;;;;;;;5.27;4.77;;;21.30;85.20;;;;;;5000490;28;20958;-78
2022/12/01 06:27:59;;;;;;;4.70;4.30;;;21.30;85.20;;;;;;4998996;28;20470;-80
2022/12/01 06:30:26;;;;;;;5.60;5.10;;;21.30;85.20;;;;;;4993762;28;20478;-81
2022/12/01 06:32:55;;;;;;;5.00;4.50;;;21.30;85.10;;;;;;4992345;28;20986;-80
2022/12/01 06:35:21;;;;;;;5.53;5.00;;;21.30;85.20;;;;;;4993723;28;20464;-80
2022/12/01 06:37:48;;;;;;;5.43;4.93;;;21.30;85.80;;;;;;4996207;28;20970;-80
2022/12/01 06:40:15;;;;;;;5.07;4.63;;;21.30;85.10;;;;;;4989378;28;20464;-79
2022/12/01 06:42:42;;;;;;;5.00;4.60;;;21.30;85.00;;;;;;4991115;28;20489;-79
2022/12/01 06:45:10;;;;;;;5.50;5.00;;;21.30;85.00;;;;;;4996513;28;20467;-77
2022/12/01 06:47:38;;;;;;;5.23;4.53;;;21.30;85.00;;;;;;4999175;28;20467;-80
2022/12/01 06:50:08;;;;;;;5.00;4.53;;;21.30;84.90;;;;;;4994833;28;20471;-80
2022/12/01 06:52:35;;;;;;;5.00;4.60;;;21.30;84.90;;;;;;4991826;28;20479;-80
2022/12/01 06:55:03;;;;;;;5.00;4.60;;;21.30;85.00;;;;;;5005236;28;20487;-80
2022/12/01 06:57:30;;;;;;;5.70;5.20;;;21.30;84.80;;;;;;4989880;28;20460;-80
2022/12/01 06:59:57;;;;;;;4.63;4.23;;;21.30;85.00;;;;;;4991209;28;20473;-77
2022/12/01 07:02:24;;;;;;;5.00;4.60;;;21.20;84.90;;;;;;4996758;28;20487;-80
2022/12/01 07:04:50;;;;;;;5.70;4.70;;;21.30;84.90;;;;;;5001125;28;20459;-80
2022/12/01 07:07:18;;;;;;;5.80;5.30;;;21.20;84.80;;;;;;4992713;28;20467;-79
2022/12/01 07:09:45;;;;;;;4.80;4.40;;;21.20;84.90;;;;;;4996385;28;20463;-78
2022/12/01 07:12:12;;;;;;;5.70;4.90;;;21.20;85.00;;;;;;4999090;28;20460;-78
2022/12/01 07:14:41;;;;;;;5.77;4.60;;;21.20;85.00;;;;;;5000305;28;20823;-78
2022/12/01 07:17:08;;;;;;;5.65;5.00;;;21.10;85.00;;;;;;4990773;28;20480;-78
2022/12/01 07:19:34;;;;;;;4.63;4.20;;;21.20;85.10;;;;;;4991666;28;20197;-78
2022/12/01 07:22:01;;;;;;;4.63;4.23;;;21.20;85.00;;;;;;4995389;28;20900;-78
2022/12/01 07:24:29;;;;;;;4.40;4.00;;;21.20;85.00;;;;;;4995506;28;20487;-78
2022/12/01 07:26:56;;;;;;;5.80;5.30;;;21.20;85.00;;;;;;4997918;28;20807;-78
2022/12/01 07:29:22;;;;;;;5.80;5.20;;;21.20;84.80;;;;;;5002881;28;20444;-78
2022/12/01 07:31:49;;;;;;;4.57;4.17;;;21.30;84.90;;;;;;4997682;28;20459;-79
2022/12/01 07:34:16;;;;;;;5.10;4.70;;;21.30;84.80;;;;;;4987945;28;20966;-78
2022/12/01 07:36:42;;;;;;;5.30;4.80;;;21.30;84.60;;;;;;4988029;28;20832;-78
2022/12/01 07:39:09;;;;;;;4.40;4.00;;;21.30;84.60;;;;;;4993688;28;20448;-78
2022/12/01 07:41:37;;;;;;;5.30;4.80;;;21.40;84.60;;;;;;5002434;28;20464;-79
2022/12/01 07:44:04;;;;;;;5.20;4.70;;;21.40;84.50;;;;;;4991757;28;20491;-78
2022/12/01 07:46:31;;;;;;;4.77;4.37;;;21.40;84.40;;;;;;4998821;28;20459;-78
2022/12/01 07:48:59;;;;;;;4.33;3.93;;;21.40;84.30;;;;;;4988684;28;20486;-78
2022/12/01 07:51:26;;;;;;;4.50;4.10;;;21.40;84.30;;;;;;4990999;28;20464;-78
2022/12/01 07:53:53;;;;;;;5.17;4.67;;;21.40;84.30;;;;;;4985252;28;20468;-78
2022/12/01 07:56:21;;;;;;;4.93;4.47;;;21.40;84.30;;;;;;4988768;28;20464;-78
2022/12/01 07:58:49;;;;;;;4.93;4.53;;;21.30;84.20;;;;;;4993695;28;20467;-78
2022/12/01 08:01:17;;;;;;;5.17;4.73;;;21.40;84.30;;;;;;4995243;28;20457;-79
2022/12/01 08:03:44;;;;;;;5.50;5.00;;;21.40;84.30;;;;;;4987786;28;20515;-79
2022/12/01 08:06:12;;;;;;;4.43;4.03;;;21.40;84.30;;;;;;4988666;28;20437;-78
2022/12/01 08:08:40;;;;;;;4.20;3.90;;;21.40;84.30;;;;;;4993922;28;20471;-79
2022/12/01 08:11:10;;;;;;;4.57;4.17;;;21.30;84.20;;;;;;4994419;28;20463;-79
2022/12/01 08:13:37;;;;;;;4.83;4.43;;;21.30;84.30;;;;;;4990947;28;20459;-78
2022/12/01 08:16:07;;;;;;;5.17;4.67;;;21.30;84.30;;;;;;5001558;28;20854;-79
2022/12/01 08:18:36;;;;;;;4.10;3.80;;;21.30;84.40;;;;;;4993659;28;20464;-79
2022/12/01 08:21:03;;;;;;;5.90;5.40;;;21.30;84.50;;;;;;4988473;28;20200;-79
2022/12/01 08:23:30;;;;;;;4.70;4.30;;;21.20;84.30;;;;;;4990402;28;20864;-79
2022/12/01 08:26:00;;;;;;;4.90;4.50;;;21.20;84.30;;;;;;4996767;28;20954;-78
2022/12/01 08:28:27;;;;;;;5.72;5.10;;;21.10;84.40;;;;;;4995852;28;21006;-79
2022/12/01 08:30:54;;;;;;;4.30;3.92;;;21.10;84.60;;;;;;4984878;28;20197;-78
2022/12/01 08:33:22;;;;;;;5.38;4.88;;;21.00;84.60;;;;;;4989792;28;20201;-78
2022/12/01 08:35:49;;;;;;;4.60;4.20;;;21.00;84.80;;;;;;4992818;28;20205;-78
2022/12/01 08:38:16;;;;;;;4.53;3.70;;;21.00;85.30;;;;;;4991747;28;20998;-80
2022/12/01 08:40:42;;;;;;;4.60;4.15;;;21.00;85.10;;;;;;4990851;28;20452;-78
2022/12/01 08:43:09;;;;;;;8.33;5.17;;;21.00;85.30;;;;;;4998249;28;20224;-83
2022/12/01 08:45:36;;;;;;;5.30;4.80;;;21.00;84.90;;;;;;4984108;28;20472;-81
2022/12/01 08:48:03;;;;;;;9.40;4.33;;;21.10;85.20;;;;;;4987476;28;20839;-79
2022/12/01 08:50:31;;;;;;;6.57;4.60;;;21.20;85.70;;;;;;4987108;28;20475;-81
2022/12/01 08:52:58;;;;;;;12.50;5.07;;;21.30;85.20;;;;;;4993056;28;20216;-82
2022/12/01 08:55:24;;;;;;;4.40;4.00;;;21.40;85.20;;;;;;4991803;28;20460;-82
2022/12/01 08:57:51;;;;;;;4.60;4.20;;;21.40;85.20;;;;;;4993546;28;20455;-82
2022/12/01 09:00:18;;;;;;;5.93;5.20;;;21.40;85.10;;;;;;4995808;28;20456;-81
2022/12/01 09:02:45;;;;;;;10.33;4.77;;;21.50;85.30;;;;;;4998745;28;20448;-80
2022/12/01 09:05:12;;;;;;;4.73;4.33;;;21.50;84.60;;;;;;4990356;28;20479;-80
2022/12/01 09:07:41;;;;;;;6.90;5.10;;;21.50;84.60;;;;;;4989403;28;20827;-80
2022/12/01 09:10:09;;;;;;;4.03;3.63;;;21.50;84.30;;;;;;4993860;28;20452;-81
2022/12/01 09:12:36;;;;;;;5.80;5.00;;;21.50;84.20;;;;;;4981693;28;20453;-78
2022/12/01 09:15:05;;;;;;;5.73;5.13;;;21.50;84.10;;;;;;4986849;28;20835;-80
2022/12/01 09:17:32;;;;;;;5.53;5.00;;;21.50;84.10;;;;;;4989770;28;20467;-80
2022/12/01 09:19:59;;;;;;;5.43;4.70;;;21.50;84.00;;;;;;4988244;28;20978;-78
2022/12/01 09:22:26;;;;;;;6.23;4.93;;;21.50;84.00;;;;;;4988097;28;20452;-78
2022/12/01 09:24:54;;;;;;;5.87;4.97;;;21.50;84.00;;;;;;4994100;28;20464;-78
2022/12/01 09:27:20;;;;;;;4.97;4.57;;;21.40;83.90;;;;;;4992807;28;20456;-78
2022/12/01 09:29:47;;;;;;;5.70;4.60;;;21.40;83.80;;;;;;4981556;28;20832;-79
2022/12/01 09:32:14;;;;;;;5.03;4.63;;;21.40;83.80;;;;;;4990545;28;20458;-79
2022/12/01 09:34:41;;;;;;;5.90;5.30;;;21.40;83.80;;;;;;4993813;28;20456;-78
2022/12/01 09:37:08;;;;;;;4.93;4.53;;;21.40;83.90;;;;;;4992519;28;20547;-77
2022/12/01 09:39:35;;;;;;;4.27;3.90;;;21.40;83.90;;;;;;4982882;28;20455;-78
2022/12/01 09:42:07;;;;;;;4.40;4.00;;;21.30;83.90;;;;;;4981945;28;20457;-78
2022/12/01 09:44:41;;;;;;;4.87;4.37;;;21.30;83.80;;;;;;4988223;28;20564;-79
2022/12/01 09:47:17;;;;;;;5.60;5.10;;;21.30;83.70;;;;;;4997056;28;20522;-77
2022/12/01 09:49:59;;;;;;;5.80;5.30;;;21.30;83.90;;;;;;4992753;28;20456;-78
2022/12/01 09:52:32;;;;;;;6.63;4.90;;;21.30;83.90;;;;;;4991907;28;20926;-77
2022/12/01 09:55:01;;;;;;;5.50;5.03;;;21.30;84.00;;;;;;4992030;28;20811;-78
2022/12/01 09:57:35;;;;;;;4.70;4.30;;;21.30;84.00;;;;;;4993696;28;20463;-79
2022/12/01 10:00:07;;;;;;;5.17;4.67;;;21.30;84.00;;;;;;5000787;28;20452;-81
2022/12/01 10:02:39;;;;;;;5.22;4.72;;;21.20;84.00;;;;;;5000764;28;20506;-79
2022/12/01 10:05:14;;;;;;;6.40;5.27;;;21.20;84.00;;;;;;4991195;28;20696;-77
2022/12/01 10:07:46;;;;;;;5.00;4.50;;;21.30;84.00;;;;;;4995258;28;20463;-79
2022/12/01 10:10:18;;;;;;;5.00;4.60;;;21.30;84.10;;;;;;4993021;28;20962;-80
2022/12/01 10:12:47;;;;;;;4.67;4.27;;;21.30;84.10;;;;;;4991317;28;20476;-79
2022/12/01 10:15:24;;;;;;;5.97;5.07;;;21.30;84.10;;;;;;4996133;28;20488;-79
2022/12/01 10:18:05;;;;;;;7.82;6.50;;;21.30;84.00;;;;;;4997800;28;20451;-83
2022/12/01 10:20:42;;;;;;;6.63;5.20;;;21.30;84.60;;;;;;4992835;28;20597;-86
2022/12/01 10:23:44;;;;;;;14.20;5.77;;;21.30;84.60;;;;;;4995331;28;20460;-81
2022/12/01 10:26:27;;;;;;;8.73;5.27;;;21.40;85.10;;;;;;4918503;29;20478;-87
2022/12/01 10:29:05;;;;;;;10.63;5.70;;;21.50;85.60;;;;;;4929593;28;21038;-86
2022/12/01 10:31:39;;;;;;;19.17;5.43;;;21.50;85.50;;;;;;4996642;28;20548;-87
2022/12/01 10:37:30;;;;;;;8.17;5.27;;;21.60;85.50;;;;;;4992546;28;20426;-85
2022/12/01 10:39:58;;;;;;;6.03;5.27;;;21.60;85.50;;;;;;4988481;28;20861;-87
2022/12/01 10:42:29;;;;;;;7.33;4.83;;;21.60;85.40;;;;;;4993712;28;20452;-86
2022/12/01 10:45:02;;;;;;;7.07;5.67;;;21.60;85.50;;;;;;4989801;28;20475;-86
2022/12/01 10:47:30;;;;;;;11.00;5.60;;;21.60;85.40;;;;;;4989799;28;20967;-86
2022/12/01 10:49:58;;;;;;;7.30;5.10;;;21.60;85.50;;;;;;4994409;28;20553;-84
2022/12/01 10:52:35;;;;;;;4.80;4.33;;;21.70;85.50;;;;;;4995144;28;20487;-85
2022/12/01 10:55:04;;;;;;;5.47;4.97;;;21.60;85.50;;;;;;4979106;28;20456;-85
2022/12/01 10:57:31;;;;;;;5.83;5.33;;;21.60;85.60;;;;;;4994180;28;20460;-85
2022/12/01 11:00:02;;;;;;;5.23;4.73;;;21.70;85.90;;;;;;5001472;28;20474;-84
2022/12/01 11:02:33;;;;;;;6.27;5.03;;;21.70;85.90;;;;;;4993250;28;20961;-84
2022/12/01 11:05:03;;;;;;;8.47;5.83;;;21.60;85.60;;;;;;5003786;28;20506;-85
2022/12/01 11:07:34;;;;;;;5.97;5.43;;;21.70;85.80;;;;;;4993011;28;20824;-85
2022/12/01 11:10:15;;;;;;;5.40;4.90;;;21.60;85.70;;;;;;4995889;28;20447;-84
2022/12/01 11:12:43;;;;;;;5.30;4.80;;;21.70;85.70;;;;;;4994755;28;20459;-85
2022/12/01 11:15:22;;;;;;;6.10;5.50;;;21.70;85.80;;;;;;5002176;28;20445;-84
2022/12/01 11:17:56;;;;;;;6.03;5.53;;;21.70;85.70;;;;;;4987474;28;20451;-83
2022/12/01 11:20:33;;;;;;;7.30;4.80;;;21.70;85.60;;;;;;4989658;28;20428;-85
2022/12/01 11:23:23;;;;;;;5.10;4.70;;;21.70;85.60;;;;;;4989405;28;20559;-85
2022/12/01 11:25:58;;;;;;;5.40;4.90;;;21.70;85.70;;;;;;4995057;28;20436;-84
2022/12/01 11:28:25;;;;;;;5.67;5.17;;;21.70;85.90;;;;;;4994501;28;20470;-84
2022/12/01 11:30:57;;;;;;;6.50;5.80;;;21.70;85.90;;;;;;4997494;28;20464;-84
2022/12/01 11:33:24;;;;;;;6.40;5.60;;;21.70;85.70;;;;;;4997310;28;20455;-84
2022/12/01 11:35:51;;;;;;;6.00;5.47;;;21.70;85.50;;;;;;4991063;28;20467;-84
2022/12/01 11:38:22;;;;;;;5.30;4.80;;;21.70;85.50;;;;;;4990747;28;20460;-84
2022/12/01 11:40:50;;;;;;;6.13;5.63;;;21.80;85.40;;;;;;4993129;28;20443;-84
2022/12/01 11:43:24;;;;;;;6.00;5.43;;;21.80;85.40;;;;;;4994068;28;20459;-85
2022/12/01 11:45:53;;;;;;;5.10;4.63;;;21.80;85.30;;;;;;4989852;28;20464;-85
2022/12/01 11:48:25;;;;;;;6.30;5.70;;;21.80;85.50;;;;;;4990580;28;20456;-85
2022/12/01 11:51:08;;;;;;;5.70;5.03;;;21.70;85.60;;;;;;4987995;28;20464;-84
2022/12/01 11:53:40;;;;;;;6.50;5.90;;;21.70;85.70;;;;;;4995621;28;21042;-84
2022/12/01 11:56:26;;;;;;;5.57;5.07;;;21.70;85.70;;;;;;4994312;28;20444;-85
2022/12/01 11:58:57;;;;;;;5.73;5.23;;;21.80;85.70;;;;;;4993686;28;20538;-84
2022/12/01 12:01:34;;;;;;;5.37;4.87;;;21.70;85.70;;;;;;4987175;28;20460;-84
2022/12/01 12:04:15;;;;;;;5.67;5.17;;;21.80;85.70;;;;;;4993030;28;20483;-85
2022/12/01 12:06:51;;;;;;;6.20;5.60;;;21.70;85.70;;;;;;4998368;28;20459;-84
2022/12/01 12:09:38;;;;;;;6.10;5.60;;;21.70;85.70;;;;;;4996434;28;20451;-86
2022/12/01 12:12:16;;;;;;;6.43;5.83;;;21.80;85.40;;;;;;4992408;28;20463;-85
2022/12/01 12:14:54;;;;;;;5.97;5.37;;;21.80;85.10;;;;;;4992817;28;20452;-84
2022/12/01 12:17:35;;;;;;;5.70;5.20;;;21.80;85.30;;;;;;4991993;28;20531;-84
2022/12/01 12:20:21;;;;;;;6.87;6.17;;;21.80;85.10;;;;;;4991021;28;20893;-85
2022/12/01 12:22:59;;;;;;;5.50;5.00;;;21.80;85.40;;;;;;4989641;28;20487;-85
2022/12/01 12:25:39;;;;;;;6.10;5.50;;;21.90;85.20;;;;;;4996649;28;20986;-86
2022/12/01 12:28:17;;;;;;;5.57;5.07;;;21.90;85.00;;;;;;4992646;28;20464;-85
2022/12/01 12:30:55;;;;;;;5.00;4.60;;;21.90;85.00;;;;;;4990885;28;20955;-85
2022/12/01 12:33:44;;;;;;;5.47;4.93;;;21.90;85.00;;;;;;4998484;28;20466;-85
2022/12/01 12:36:22;;;;;;;6.63;6.03;;;22.00;84.80;;;;;;4992044;28;20452;-86
2022/12/01 12:39:00;;;;;;;5.40;4.90;;;21.90;84.90;;;;;;4986456;28;20982;-88
2022/12/01 12:41:35;;;;;;;6.70;5.70;;;22.00;85.00;;;;;;4992623;28;20559;-88
2022/12/01 12:44:17;;;;;;;6.80;5.70;;;22.00;84.90;;;;;;4993762;28;20483;-88
2022/12/01 12:46:52;;;;;;;6.40;5.90;;;22.00;84.80;;;;;;4986306;28;20979;-87
2022/12/01 12:49:31;;;;;;;5.90;5.40;;;22.00;84.80;;;;;;4992379;28;20458;-85
2022/12/01 12:52:04;;;;;;;6.20;5.60;;;22.00;85.00;;;;;;4986807;28;20813;-86
2022/12/01 12:54:35;;;;;;;6.10;5.50;;;22.00;85.70;;;;;;4986917;28;21001;-86
2022/12/01 12:57:13;;;;;;;6.87;6.17;;;22.00;84.80;;;;;;4993886;28;20456;-87
2022/12/01 12:59:48;;;;;;;6.90;5.57;;;22.00;85.00;;;;;;4988986;28;20450;-87
2022/12/01 13:02:19;;;;;;;6.10;5.60;;;22.00;84.80;;;;;;4993628;28;20455;-87
2022/12/01 13:04:52;;;;;;;6.40;5.83;;;22.00;84.70;;;;;;4994006;28;20507;-84